Time,TemperatureF,DewpointF,PressureIn,WindDirection,WindDirectionDegrees,WindSpeedMPH,WindSpeedGustMPH,Humidity,HourlyPrecipIn,Conditions,Clouds,dailyrainin,SolarRadiationWatts/m^2,SoftwareType,DateUTC
2013-09-01 00:07:00,76.8,74.0,29.94,SW,226,0.0,0.0,92,0.00,,,0.00,0,weatherlink.com 1.10,2013-09-01 04:07:00,
2013-09-01 00:22:00,76.7,75.0,29.94,SW,226,0.0,0.0,93,0.00,,,0.00,0,weatherlink.com 1.10,2013-09-01 04:22:00,
2013-09-01 00:37:00,76.5,74.0,29.94,SW,226,0.0,0.0,93,0.00,,,0.00,0,weatherlink.com 1.10,2013-09-01 04:37:00,
2013-09-01 00:52:00,76.6,75.0,29.93,SW,226,0.0,0.0,94,0.00,,,0.00,0,weatherlink.com 1.10,2013-09-01 04:52:00,
2013-09-01 01:07:00,76.3,75.0,29.93,SW,226,0.0,0.0,94,0.00,,,0.00,0,weatherlink.com 1.10,2013-09-01 05:07:00,
2013-09-01 01:22:00,76.2,75.0,29.93,SW,226,0.0,0.0,95,0.00,,,0.00,0,weatherlink.com 1.10,2013-09-01 05:22:00,
2013-09-01 01:37:00,76.2,75.0,29.92,SW,226,0.0,0.0,95,0.00,,,0.00,0,weatherlink.com 1.10,2013-09-01 05:37:00,
2013-09-01 01:52:00,76.2,75.0,29.92,SW,226,0.0,0.0,95,0.00,,,0.00,0,weatherlink.com 1.10,2013-09-01 05:52:00,
2013-09-01 02:07:00,76.2,75.0,29.92,SW,226,0.0,1.0,96,0.00,,,0.00,0,weatherlink.com 1.10,2013-09-01 06:07:00,
2013-09-01 02:22:00,77.2,75.0,29.91,ESE,115,0.0,3.0,94,0.00,,,0.00,0,weatherlink.com 1.10,2013-09-01 06:22:00,
2013-09-01 02:37:00,77.1,75.0,29.91,ESE,115,0.0,1.0,94,0.00,,,0.00,0,weatherlink.com 1.10,2013-09-01 06:37:00,
2013-09-01 02:52:00,77.3,76.0,29.91,ESE,115,1.0,2.0,94,0.00,,,0.00,0,weatherlink.com 1.10,2013-09-01 06:52:00,
2013-09-01 03:07:00,77.3,76.0,29.91,ESE,115,0.0,1.0,94,0.00,,,0.00,0,weatherlink.com 1.10,2013-09-01 07:07:00,
2013-09-01 03:22:00,77.0,75.0,29.91,ESE,115,0.0,1.0,94,0.00,,,0.00,0,weatherlink.com 1.10,2013-09-01 07:22:00,
2013-09-01 03:37:00,77.1,75.0,29.91,ESE,115,0.0,1.0,94,0.00,,,0.00,0,weatherlink.com 1.10,2013-09-01 07:37:00,
2013-09-01 03:52:00,77.4,76.0,29.91,ESE,115,0.0,3.0,95,0.00,,,0.00,0,weatherlink.com 1.10,2013-09-01 07:52:00,
2013-09-01 04:07:00,77.8,76.0,29.91,ESE,113,1.0,3.0,95,0.00,,,0.00,0,weatherlink.com 1.10,2013-09-01 08:07:00,
2013-09-01 04:22:00,77.8,76.0,29.91,ESE,113,0.0,2.0,95,0.00,,,0.00,0,weatherlink.com 1.10,2013-09-01 08:22:00,
2013-09-01 04:37:00,77.6,76.0,29.91,ESE,113,0.0,2.0,95,0.00,,,0.00,0,weatherlink.com 1.10,2013-09-01 08:37:00,
2013-09-01 04:52:00,78.0,77.0,29.91,ESE,113,0.0,3.0,95,0.00,,,0.00,0,weatherlink.com 1.10,2013-09-01 08:52:00,
2013-09-01 05:07:00,78.0,77.0,29.91,ESE,123,2.0,4.0,95,0.00,,,0.00,0,weatherlink.com 1.10,2013-09-01 09:07:00,
2013-09-01 05:22:00,78.1,76.0,29.91,SE,126,0.0,4.0,94,0.00,,,0.00,0,weatherlink.com 1.10,2013-09-01 09:22:00,
2013-09-01 05:37:00,78.1,76.0,29.91,ESE,110,1.0,4.0,94,0.00,,,0.00,0,weatherlink.com 1.10,2013-09-01 09:37:00,
2013-09-01 05:52:00,77.8,76.0,29.92,ESE,113,3.0,8.0,93,0.00,,,0.00,0,weatherlink.com 1.10,2013-09-01 09:52:00,
2013-09-01 06:07:00,77.1,73.0,29.92,SSE,153,1.0,5.0,86,0.00,,,0.00,0,weatherlink.com 1.10,2013-09-01 10:07:00,
2013-09-01 06:22:00,77.4,73.0,29.93,ESE,122,3.0,4.0,85,0.00,,,0.00,0,weatherlink.com 1.10,2013-09-01 10:22:00,
2013-09-01 06:37:00,77.4,73.0,29.93,SSE,161,0.0,1.0,87,0.00,,,0.00,0,weatherlink.com 1.10,2013-09-01 10:37:00,
2013-09-01 06:52:00,77.6,74.0,29.94,South,174,1.0,2.0,87,0.00,,,0.00,0,weatherlink.com 1.10,2013-09-01 10:52:00,
2013-09-01 07:07:00,77.5,73.0,29.94,SSE,164,1.0,2.0,87,0.00,,,0.00,0,weatherlink.com 1.10,2013-09-01 11:07:00,
2013-09-01 07:22:00,77.7,74.0,29.94,ESE,123,2.0,4.0,89,0.00,,,0.00,12,weatherlink.com 1.10,2013-09-01 11:22:00,
2013-09-01 07:37:00,77.9,75.0,29.95,SE,142,2.0,7.0,91,0.00,,,0.00,14,weatherlink.com 1.10,2013-09-01 11:37:00,
2013-09-01 07:52:00,77.7,75.0,29.95,SE,133,7.0,7.0,91,0.00,,,0.00,46,weatherlink.com 1.10,2013-09-01 11:52:00,
2013-09-01 08:07:00,78.5,74.0,29.95,ESE,120,0.0,4.0,86,0.00,,,0.00,134,weatherlink.com 1.10,2013-09-01 12:07:00,
2013-09-01 08:22:00,80.7,75.0,29.95,ESE,120,1.0,3.0,82,0.00,,,0.00,179,weatherlink.com 1.10,2013-09-01 12:22:00,
2013-09-01 08:37:00,82.2,75.0,29.95,SSE,161,0.0,3.0,79,0.00,,,0.00,211,weatherlink.com 1.10,2013-09-01 12:37:00,
2013-09-01 08:53:00,82.2,75.0,29.95,East,94,3.0,6.0,79,0.00,,,0.00,260,weatherlink.com 1.10,2013-09-01 12:53:00,
2013-09-01 09:08:00,83.9,77.0,29.96,SE,140,2.0,6.0,80,0.00,,,0.00,315,weatherlink.com 1.10,2013-09-01 13:08:00,
2013-09-01 09:23:00,84.1,77.0,29.96,ESE,103,3.0,6.0,80,0.00,,,0.00,369,weatherlink.com 1.10,2013-09-01 13:23:00,
2013-09-01 09:38:00,85.5,79.0,29.96,ESE,123,3.0,5.0,80,0.00,,,0.00,424,weatherlink.com 1.10,2013-09-01 13:38:00,
2013-09-01 09:53:00,86.3,79.0,29.96,East,87,0.0,6.0,78,0.00,,,0.00,490,weatherlink.com 1.10,2013-09-01 13:53:00,
2013-09-01 10:08:00,85.9,78.0,29.96,ESE,119,4.0,7.0,78,0.00,,,0.00,211,weatherlink.com 1.10,2013-09-01 14:08:00,
2013-09-01 10:23:00,88.3,80.0,29.97,ESE,122,2.0,8.0,76,0.00,,,0.00,752,weatherlink.com 1.10,2013-09-01 14:23:00,
2013-09-01 10:38:00,89.9,80.0,29.97,WSW,252,2.0,6.0,72,0.00,,,0.00,680,weatherlink.com 1.10,2013-09-01 14:38:00,
2013-09-01 10:53:00,89.1,78.0,29.96,SW,229,2.0,8.0,70,0.00,,,0.00,742,weatherlink.com 1.10,2013-09-01 14:53:00,
2013-09-01 11:08:00,87.9,77.0,29.96,SW,225,4.0,9.0,70,0.00,,,0.00,742,weatherlink.com 1.10,2013-09-01 15:08:00,
2013-09-01 11:23:00,88.4,77.0,29.96,South,185,3.0,11.0,68,0.00,,,0.00,809,weatherlink.com 1.10,2013-09-01 15:23:00,
2013-09-01 11:38:00,91.1,79.0,29.97,SW,231,4.0,8.0,68,0.00,,,0.00,826,weatherlink.com 1.10,2013-09-01 15:38:00,
2013-09-01 11:53:00,88.9,77.0,29.97,WSW,246,4.0,10.0,68,0.00,,,0.00,895,weatherlink.com 1.10,2013-09-01 15:53:00,
2013-09-01 12:08:00,91.8,79.0,29.97,SSW,204,2.0,7.0,66,0.00,,,0.00,1014,weatherlink.com 1.10,2013-09-01 16:08:00,
2013-09-01 12:23:00,90.1,78.0,29.96,SW,216,6.0,10.0,68,0.00,,,0.00,983,weatherlink.com 1.10,2013-09-01 16:23:00,
2013-09-01 12:38:00,89.1,77.0,29.96,WSW,241,2.0,10.0,67,0.00,,,0.00,977,weatherlink.com 1.10,2013-09-01 16:38:00,
2013-09-01 12:53:00,90.9,78.0,29.96,SW,216,5.0,12.0,65,0.00,,,0.00,1065,weatherlink.com 1.10,2013-09-01 16:53:00,
2013-09-01 13:08:00,91.0,77.0,29.96,West,263,2.0,10.0,63,0.00,,,0.00,1020,weatherlink.com 1.10,2013-09-01 17:08:00,
2013-09-01 13:23:00,90.7,77.0,29.96,SW,235,6.0,8.0,65,0.00,,,0.00,974,weatherlink.com 1.10,2013-09-01 17:23:00,
2013-09-01 13:38:00,92.0,78.0,29.96,SSW,193,4.0,8.0,63,0.00,,,0.00,1067,weatherlink.com 1.10,2013-09-01 17:38:00,
2013-09-01 13:53:00,91.0,76.0,29.95,SW,215,5.0,8.0,62,0.00,,,0.00,1014,weatherlink.com 1.10,2013-09-01 17:53:00,
2013-09-01 14:08:00,90.2,76.0,29.95,West,260,3.0,8.0,64,0.00,,,0.00,1030,weatherlink.com 1.10,2013-09-01 18:08:00,
2013-09-01 14:23:00,91.1,76.0,29.95,West,261,4.0,12.0,61,0.00,,,0.00,954,weatherlink.com 1.10,2013-09-01 18:23:00,
2013-09-01 14:38:00,90.4,76.0,29.94,WSW,242,6.0,9.0,62,0.00,,,0.00,926,weatherlink.com 1.10,2013-09-01 18:38:00,
2013-09-01 14:53:00,91.7,75.0,29.93,SSW,205,5.0,8.0,58,0.00,,,0.00,888,weatherlink.com 1.10,2013-09-01 18:53:00,
2013-09-01 15:08:00,89.5,75.0,29.93,WSW,238,10.0,10.0,63,0.00,,,0.00,872,weatherlink.com 1.10,2013-09-01 19:08:00,
2013-09-01 15:24:00,90.2,75.0,29.93,SW,218,8.0,10.0,61,0.00,,,0.00,844,weatherlink.com 1.10,2013-09-01 19:24:00,
2013-09-01 15:39:00,91.2,77.0,29.93,SW,232,6.0,9.0,63,0.00,,,0.00,823,weatherlink.com 1.10,2013-09-01 19:39:00,
2013-09-01 15:54:00,91.9,77.0,29.92,SSW,212,4.0,11.0,62,0.00,,,0.00,838,weatherlink.com 1.10,2013-09-01 19:54:00,
2013-09-01 16:09:00,91.5,76.0,29.92,WSW,244,4.0,9.0,60,0.00,,,0.00,747,weatherlink.com 1.10,2013-09-01 20:09:00,
2013-09-01 16:24:00,90.7,75.0,29.92,SW,227,8.0,10.0,61,0.00,,,0.00,98,weatherlink.com 1.10,2013-09-01 20:24:00,
2013-09-01 16:39:00,90.2,75.0,29.91,WSW,238,8.0,10.0,62,0.00,,,0.00,671,weatherlink.com 1.10,2013-09-01 20:39:00,
2013-09-01 16:54:00,90.6,77.0,29.90,WSW,239,5.0,10.0,64,0.00,,,0.00,621,weatherlink.com 1.10,2013-09-01 20:54:00,
2013-09-01 17:09:00,89.3,75.0,29.91,WSW,240,8.0,10.0,62,0.00,,,0.00,575,weatherlink.com 1.10,2013-09-01 21:09:00,
2013-09-01 17:24:00,89.7,75.0,29.92,SW,224,3.0,9.0,63,0.00,,,0.00,529,weatherlink.com 1.10,2013-09-01 21:24:00,
2013-09-01 17:39:00,88.9,74.0,29.92,SSW,211,5.0,10.0,62,0.00,,,0.00,478,weatherlink.com 1.10,2013-09-01 21:39:00,
2013-09-01 17:54:00,88.4,75.0,29.92,SW,232,8.0,10.0,64,0.00,,,0.00,424,weatherlink.com 1.10,2013-09-01 21:54:00,
2013-09-01 18:09:00,88.8,75.0,29.91,SW,219,4.0,9.0,63,0.00,,,0.00,367,weatherlink.com 1.10,2013-09-01 22:09:00,
2013-09-01 18:24:00,87.3,74.0,29.91,WSW,240,3.0,8.0,65,0.00,,,0.00,311,weatherlink.com 1.10,2013-09-01 22:24:00,
2013-09-01 18:39:00,87.7,74.0,29.92,SW,226,3.0,8.0,64,0.00,,,0.00,251,weatherlink.com 1.10,2013-09-01 22:39:00,
2013-09-01 18:54:00,87.1,74.0,29.92,SW,235,3.0,7.0,65,0.00,,,0.00,193,weatherlink.com 1.10,2013-09-01 22:54:00,
2013-09-01 19:09:00,86.2,74.0,29.92,SW,222,3.0,7.0,67,0.00,,,0.00,139,weatherlink.com 1.10,2013-09-01 23:09:00,
2013-09-01 19:24:00,84.9,73.0,29.92,SSW,202,3.0,5.0,68,0.00,,,0.00,39,weatherlink.com 1.10,2013-09-01 23:24:00,
2013-09-01 19:39:00,84.1,73.0,29.92,SW,234,4.0,6.0,69,0.00,,,0.00,25,weatherlink.com 1.10,2013-09-01 23:39:00,
2013-09-01 19:54:00,83.5,73.0,29.92,SW,217,1.0,5.0,70,0.00,,,0.00,12,weatherlink.com 1.10,2013-09-01 23:54:00,
2013-09-01 20:09:00,82.9,73.0,29.93,SW,223,1.0,3.0,72,0.00,,,0.00,0,weatherlink.com 1.10,2013-09-02 00:09:00,
2013-09-01 20:24:00,82.1,73.0,29.94,SW,223,0.0,2.0,74,0.00,,,0.00,0,weatherlink.com 1.10,2013-09-02 00:24:00,
2013-09-01 20:39:00,81.2,73.0,29.93,SW,223,1.0,1.0,76,0.00,,,0.00,0,weatherlink.com 1.10,2013-09-02 00:39:00,
2013-09-01 20:54:00,81.4,73.0,29.94,SSE,155,0.0,1.0,75,0.00,,,0.00,0,weatherlink.com 1.10,2013-09-02 00:54:00,
2013-09-01 21:09:00,81.4,73.0,29.94,South,187,0.0,3.0,76,0.00,,,0.00,0,weatherlink.com 1.10,2013-09-02 01:09:00,
2013-09-01 21:24:00,80.6,73.0,29.95,South,187,0.0,1.0,78,0.00,,,0.00,0,weatherlink.com 1.10,2013-09-02 01:24:00,
2013-09-01 21:39:00,79.7,73.0,29.96,South,187,0.0,1.0,81,0.00,,,0.00,0,weatherlink.com 1.10,2013-09-02 01:39:00,
2013-09-01 21:54:00,79.5,74.0,29.96,South,187,1.0,1.0,82,0.00,,,0.00,0,weatherlink.com 1.10,2013-09-02 01:54:00,
2013-09-01 22:09:00,79.3,74.0,29.96,South,188,0.0,2.0,83,0.00,,,0.00,0,weatherlink.com 1.10,2013-09-02 02:09:00,
2013-09-01 22:24:00,79.4,74.0,29.97,South,188,0.0,0.0,83,0.00,,,0.00,0,weatherlink.com 1.10,2013-09-02 02:24:00,
2013-09-01 22:39:00,79.3,74.0,29.97,South,188,0.0,0.0,83,0.00,,,0.00,0,weatherlink.com 1.10,2013-09-02 02:39:00,
2013-09-01 22:54:00,78.6,74.0,29.97,South,188,0.0,0.0,85,0.00,,,0.00,0,weatherlink.com 1.10,2013-09-02 02:54:00,
2013-09-01 23:09:00,78.6,74.0,29.97,South,188,0.0,0.0,85,0.00,,,0.00,0,weatherlink.com 1.10,2013-09-02 03:09:00,
2013-09-01 23:24:00,78.6,74.0,29.97,South,188,0.0,0.0,86,0.00,,,0.00,0,weatherlink.com 1.10,2013-09-02 03:24:00,
2013-09-01 23:39:00,78.5,74.0,29.97,South,188,0.0,0.0,86,0.00,,,0.00,0,weatherlink.com 1.10,2013-09-02 03:39:00,
2013-09-01 23:54:00,78.6,75.0,29.97,South,188,0.0,0.0,87,0.00,,,0.00,0,weatherlink.com 1.10,2013-09-02 03:54:00,